Larsen: Past 24 Hour Conditions

 

Resolute Airport

06:00 AM CDT 18 April 2014
This table is a summary of hourly weather conditions for the past 24 hours.
Date / Time
(CDT)
Wind(knots) Conditions Visibility(km) Pressure(kPa) Air tempC) Relative humidity(%) Dew pointC) Wind Chill
18 April 2014
6:00 WSW 7 Light Snow 4 100.7 -18 75 -21 -26
5:00 SSW 5 Light Snow 13 100.7 -18 74 -22 -24
4:00 SSW 4 Light Snow 10 100.7 -19 73 -22 -25
3:00 SSW 6 Light Snow 16 100.8 -19 68 -23 -26
2:00 SW 3 Partly Cloudy 24 100.8 -19 72 -23 -23
1:00 N/A N/A N/A N/A N/A N/A N/A *
0:00 W 4 Mainly Clear 24 100.8 -19 66 -24 -26
17 April 2014
23:00 WSW 9 Mainly Clear 24 100.9 -21 65 -25 -30
22:00 WSW 5 Partly Cloudy 24 100.9 -19 68 -24 -26
21:00 W 5 Cloudy 19 100.9 -20 65 -24 -26
20:00 W 8 Partly Cloudy 24 101.0 -20 69 -24 -29
19:00 WNW 5 Partly Cloudy 19 101.0 -20 70 -24 -27
18:00 WNW 6 Mainly Sunny 24 101.1 -20 65 -25 -27
17:00 NW 8 Mainly Sunny 24 101.1 -20 66 -25 -29
16:00 WNW 8 Sunny 24 101.1 -20 64 -25 -29
15:00 WNW 7 Sunny 24 101.1 -20 67 -25 -28
14:00 NW 11 Sunny 24 101.1 -20 63 -25 -31
13:00 NNW 13 Sunny 24 101.2 -21 63 -26 -32
12:00 NW 14 Sunny 24 101.2 -22 65 -27 -34
11:00 NW 15 Sunny 24 101.2 -22 64 -27 -35
10:00 NW 13 Sunny 24 101.2 -23 65 -28 -35
9:00 NW 11 Sunny 24 101.2 -24 64 -29 -36
8:00 NW 10 Sunny 24 101.3 -26 66 -30 -37
7:00 NW 14 Sunny 24 101.3 -26 66 -30 -39
6:00 NW 12 Sunny 24 101.3 -27 64 -32 -40
 
Map of Arctic - Eastern Arctic marine weather areas Baker Lake Airport Chesterfield Inlet Airport Coral Harbour Airport Gjoa Haven Airport Kugaaruk Airport Rankin Inlet Airport Shepherd Bay Airport Whale Cove Airport Arctic Bay Brevoort Island Qikiqtarjuaq Airport Cape Dorset Airport Cape Dyer Cape Hooper Clyde Airport Grise Fiord Airport Hall Beach Airport Igloolik Airport Iqaluit Airport Longstaff Bluff Pangnirtung Airport Pond Inlet Airport Repulse Bay Airport Resolute Airport Resolution Island Rowley Island Airport Taloyoak Airport Wager Bay Akulivik Airport Ivujivik Airport Puvirnituq Airport Kangiqsujuaq Airport Kangirsuk Airport Quaqtaq Airport Tasiujaq Airport Cape Kakkiviak Cape Kiglapait Nain Airport Saglek Cape Mercy Kimmirut Airport Aupaluk Airport Salluit Airport Kangiqsualujjuaq Airport Fort Ross
Legend: buoyBuoy land stationLand Station